sensor_id;sensor_type;location;lat;lon;timestamp;pressure;altitude;pressure_sealevel;temperature;humidity
13015;BME280;6573;57.696;11.950;2022-09-09T00:00:21;101507.31;;;13.60;100.00
13015;BME280;6573;57.696;11.950;2022-09-09T00:02:55;101513.50;;;13.58;100.00
13015;BME280;6573;57.696;11.950;2022-09-09T00:05:31;101510.00;;;13.59;100.00
13015;BME280;6573;57.696;11.950;2022-09-09T00:08:02;101500.34;;;13.52;100.00
13015;BME280;6573;57.696;11.950;2022-09-09T00:10:34;101492.41;;;13.49;100.00
13015;BME280;6573;57.696;11.950;2022-09-09T00:13:14;101491.56;;;13.36;100.00
13015;BME280;6573;57.696;11.950;2022-09-09T00:15:54;101497.75;;;13.31;100.00
13015;BME280;6573;57.696;11.950;2022-09-09T00:18:28;101485.44;;;13.27;100.00
13015;BME280;6573;57.696;11.950;2022-09-09T00:21:05;101490.72;;;13.27;100.00
13015;BME280;6573;57.696;11.950;2022-09-09T00:23:38;101488.91;;;13.35;100.00
13015;BME280;6573;57.696;11.950;2022-09-09T00:26:12;101492.47;;;13.34;100.00
13015;BME280;6573;57.696;11.950;2022-09-09T00:28:48;101481.91;;;13.23;100.00
13015;BME280;6573;57.696;11.950;2022-09-09T00:31:24;101482.78;;;13.27;100.00
13015;BME280;6573;57.696;11.950;2022-09-09T00:33:55;101474.81;;;13.33;100.00
13015;BME280;6573;57.696;11.950;2022-09-09T00:36:26;101468.69;;;13.28;100.00
13015;BME280;6573;57.696;11.950;2022-09-09T00:38:58;101470.44;;;13.30;100.00
13015;BME280;6573;57.696;11.950;2022-09-09T00:41:35;101459.03;;;13.18;100.00
13015;BME280;6573;57.696;11.950;2022-09-09T00:44:20;101466.09;;;13.19;100.00
13015;BME280;6573;57.696;11.950;2022-09-09T00:47:03;101461.66;;;13.18;100.00
13015;BME280;6573;57.696;11.950;2022-09-09T00:49:40;101471.38;;;13.19;100.00
13015;BME280;6573;57.696;11.950;2022-09-09T00:52:22;101459.03;;;13.21;100.00
13015;BME280;6573;57.696;11.950;2022-09-09T00:55:03;101457.28;;;13.17;100.00
13015;BME280;6573;57.696;11.950;2022-09-09T00:57:34;101462.56;;;13.20;100.00
13015;BME280;6573;57.696;11.950;2022-09-09T01:00:18;101455.56;;;13.10;100.00
13015;BME280;6573;57.696;11.950;2022-09-09T01:02:56;101446.72;;;13.08;100.00
13015;BME280;6573;57.696;11.950;2022-09-09T01:05:36;101445.00;;;13.10;100.00
13015;BME280;6573;57.696;11.950;2022-09-09T01:08:17;101448.50;;;13.09;100.00
13015;BME280;6573;57.696;11.950;2022-09-09T01:10:56;101445.84;;;13.13;100.00
13015;BME280;6573;57.696;11.950;2022-09-09T01:13:27;101430.88;;;13.05;100.00
13015;BME280;6573;57.696;11.950;2022-09-09T01:15:59;101436.16;;;13.08;100.00
13015;BME280;6573;57.696;11.950;2022-09-09T01:18:33;101444.97;;;13.00;100.00
13015;BME280;6573;57.696;11.950;2022-09-09T01:21:09;101444.06;;;13.00;100.00
13015;BME280;6573;57.696;11.950;2022-09-09T01:26:37;101452.00;;;12.92;100.00
13015;BME280;6573;57.696;11.950;2022-09-09T01:29:08;101437.06;;;12.93;100.00
13015;BME280;6573;57.696;11.950;2022-09-09T01:31:39;101427.38;;;12.93;100.00
13015;BME280;6573;57.696;11.950;2022-09-09T01:34:10;101432.66;;;12.90;100.00
13015;BME280;6573;57.696;11.950;2022-09-09T01:36:42;101424.78;;;12.87;100.00
13015;BME280;6573;57.696;11.950;2022-09-09T01:39:12;101424.78;;;12.84;100.00
13015;BME280;6573;57.696;11.950;2022-09-09T01:41:42;101427.41;;;12.81;100.00
13015;BME280;6573;57.696;11.950;2022-09-09T01:44:11;101416.84;;;12.84;100.00
13015;BME280;6573;57.696;11.950;2022-09-09T01:46:39;101416.84;;;12.84;100.00
13015;BME280;6573;57.696;11.950;2022-09-09T01:49:08;101406.28;;;12.75;100.00
13015;BME280;6573;57.696;11.950;2022-09-09T01:51:37;101408.06;;;12.73;100.00
13015;BME280;6573;57.696;11.950;2022-09-09T01:54:07;101406.31;;;12.69;100.00
13015;BME280;6573;57.696;11.950;2022-09-09T01:56:43;101403.66;;;12.75;100.00
13015;BME280;6573;57.696;11.950;2022-09-09T01:59:27;101399.31;;;12.62;100.00
13015;BME280;6573;57.696;11.950;2022-09-09T02:02:08;101406.31;;;12.72;100.00
13015;BME280;6573;57.696;11.950;2022-09-09T02:04:40;101403.66;;;12.78;100.00
13015;BME280;6573;57.696;11.950;2022-09-09T02:07:37;101406.31;;;12.66;100.00
13015;BME280;6573;57.696;11.950;2022-09-09T02:10:10;101390.44;;;12.75;100.00
13015;BME280;6573;57.696;11.950;2022-09-09T02:12:43;101395.75;;;12.74;100.00
13015;BME280;6573;57.696;11.950;2022-09-09T02:15:19;101392.25;;;12.64;100.00
13015;BME280;6573;57.696;11.950;2022-09-09T02:17:50;101374.69;;;12.57;100.00
13015;BME280;6573;57.696;11.950;2022-09-09T02:20:20;101381.69;;;12.67;100.00
13015;BME280;6573;57.696;11.950;2022-09-09T02:22:51;101392.22;;;12.70;100.00
13015;BME280;6573;57.696;11.950;2022-09-09T02:25:24;101383.44;;;12.65;100.00
13015;BME280;6573;57.696;11.950;2022-09-09T02:27:55;101393.13;;;12.69;100.00
13015;BME280;6573;57.696;11.950;2022-09-09T02:30:26;101390.47;;;12.66;100.00
13015;BME280;6573;57.696;11.950;2022-09-09T02:32:58;101381.69;;;12.61;100.00
13015;BME280;6573;57.696;11.950;2022-09-09T02:35:29;101379.06;;;12.58;100.00
13015;BME280;6573;57.696;11.950;2022-09-09T02:38:01;101383.47;;;12.59;100.00
13015;BME280;6573;57.696;11.950;2022-09-09T02:40:32;101379.91;;;12.60;100.00
13015;BME280;6573;57.696;11.950;2022-09-09T02:43:01;101383.47;;;12.62;100.00
13015;BME280;6573;57.696;11.950;2022-09-09T02:45:36;101378.19;;;12.59;100.00
13015;BME280;6573;57.696;11.950;2022-09-09T02:48:14;101374.63;;;12.63;100.00
13015;BME280;6573;57.696;11.950;2022-09-09T02:50:54;101364.13;;;12.54;100.00
13015;BME280;6573;57.696;11.950;2022-09-09T02:53:32;101370.28;;;12.52;100.00
13015;BME280;6573;57.696;11.950;2022-09-09T02:56:08;101365.00;;;12.52;100.00
13015;BME280;6573;57.696;11.950;2022-09-09T02:58:41;101368.53;;;12.46;100.00
13015;BME280;6573;57.696;11.950;2022-09-09T03:01:10;101367.66;;;12.47;100.00
13015;BME280;6573;57.696;11.950;2022-09-09T03:03:38;101361.47;;;12.51;100.00
13015;BME280;6573;57.696;11.950;2022-09-09T03:06:08;101365.03;;;12.43;100.00
13015;BME280;6573;57.696;11.950;2022-09-09T03:08:37;101358.84;;;12.54;100.00
13015;BME280;6573;57.696;11.950;2022-09-09T03:11:05;101354.47;;;12.50;100.00
13015;BME280;6573;57.696;11.950;2022-09-09T03:13:34;101357.06;;;12.62;100.00
13015;BME280;6573;57.696;11.950;2022-09-09T03:16:04;101357.06;;;12.56;100.00
13015;BME280;6573;57.696;11.950;2022-09-09T03:18:32;101348.31;;;12.45;100.00
13015;BME280;6573;57.696;11.950;2022-09-09T03:21:01;101342.97;;;12.63;100.00
13015;BME280;6573;57.696;11.950;2022-09-09T03:23:29;101344.75;;;12.61;100.00
13015;BME280;6573;57.696;11.950;2022-09-09T03:25:57;101350.06;;;12.52;100.00
13015;BME280;6573;57.696;11.950;2022-09-09T03:28:25;101348.31;;;12.53;100.00
13015;BME280;6573;57.696;11.950;2022-09-09T03:31:00;101343.00;;;12.54;100.00
13015;BME280;6573;57.696;11.950;2022-09-09T03:33:30;101350.06;;;12.49;100.00
13015;BME280;6573;57.696;11.950;2022-09-09T03:35:58;101335.09;;;12.48;100.00
13015;BME280;6573;57.696;11.950;2022-09-09T03:38:26;101343.00;;;12.54;100.00
13015;BME280;6573;57.696;11.950;2022-09-09T03:40:56;101335.13;;;12.36;100.00
13015;BME280;6573;57.696;11.950;2022-09-09T03:43:26;101330.72;;;12.50;100.00
13015;BME280;6573;57.696;11.950;2022-09-09T03:45:54;101321.91;;;12.41;100.00
13015;BME280;6573;57.696;11.950;2022-09-09T03:48:24;101309.63;;;12.35;100.00
13015;BME280;6573;57.696;11.950;2022-09-09T03:50:56;101321.94;;;12.42;100.00
13015;BME280;6573;57.696;11.950;2022-09-09T03:53:27;101321.91;;;12.48;100.00
13015;BME280;6573;57.696;11.950;2022-09-09T03:55:57;101304.31;;;12.47;100.00
13015;BME280;6573;57.696;11.950;2022-09-09T03:58:27;101289.38;;;12.48;100.00
13015;BME280;6573;57.696;11.950;2022-09-09T04:00:57;101305.19;;;12.49;100.00
13015;BME280;6573;57.696;11.950;2022-09-09T04:03:25;101296.38;;;12.49;100.00
13015;BME280;6573;57.696;11.950;2022-09-09T04:05:57;101303.44;;;12.50;100.00
13015;BME280;6573;57.696;11.950;2022-09-09T04:08:26;101299.03;;;12.47;100.00
13015;BME280;6573;57.696;11.950;2022-09-09T04:10:54;101297.28;;;12.52;100.00
13015;BME280;6573;57.696;11.950;2022-09-09T04:13:25;101302.50;;;12.67;100.00
13015;BME280;6573;57.696;11.950;2022-09-09T04:15:55;101293.69;;;12.65;100.00
13015;BME280;6573;57.696;11.950;2022-09-09T04:18:25;101261.25;;;12.34;100.00
13015;BME280;6573;57.696;11.950;2022-09-09T04:20:56;101291.94;;;12.61;100.00
13015;BME280;6573;57.696;11.950;2022-09-09T04:23:25;101292.84;;;12.56;100.00
13015;BME280;6573;57.696;11.950;2022-09-09T04:25:56;101292.84;;;12.57;100.00
13015;BME280;6573;57.696;11.950;2022-09-09T04:28:26;101283.16;;;12.62;100.00
13015;BME280;6573;57.696;11.950;2022-09-09T04:30:54;101274.41;;;12.50;100.00
13015;BME280;6573;57.696;11.950;2022-09-09T04:33:24;101290.19;;;12.60;100.00
13015;BME280;6573;57.696;11.950;2022-09-09T04:35:55;101279.66;;;12.57;100.00
13015;BME280;6573;57.696;11.950;2022-09-09T04:38:23;101284.91;;;12.66;100.00
13015;BME280;6573;57.696;11.950;2022-09-09T04:40:53;101283.13;;;12.65;100.00
13015;BME280;6573;57.696;11.950;2022-09-09T04:43:21;101274.31;;;12.72;100.00
13015;BME280;6573;57.696;11.950;2022-09-09T04:45:52;101266.38;;;12.77;100.00
13015;BME280;6573;57.696;11.950;2022-09-09T04:48:21;101261.09;;;12.75;100.00
13015;BME280;6573;57.696;11.950;2022-09-09T04:50:58;101269.94;;;12.67;100.00
13015;BME280;6573;57.696;11.950;2022-09-09T04:53:27;101263.78;;;12.69;100.00
13015;BME280;6573;57.696;11.950;2022-09-09T04:56:02;101276.06;;;12.76;100.00
13015;BME280;6573;57.696;11.950;2022-09-09T04:58:31;101259.31;;;12.79;100.00
13015;BME280;6573;57.696;11.950;2022-09-09T05:01:04;101264.59;;;12.80;100.00
13015;BME280;6573;57.696;11.950;2022-09-09T05:03:32;101251.38;;;12.80;100.00
13015;BME280;6573;57.696;11.950;2022-09-09T05:06:07;101251.34;;;12.91;100.00
13015;BME280;6573;57.696;11.950;2022-09-09T05:08:37;101260.13;;;12.94;100.00
13015;BME280;6573;57.696;11.950;2022-09-09T05:11:13;101253.03;;;13.02;100.00
13015;BME280;6573;57.696;11.950;2022-09-09T05:13:42;101267.13;;;13.05;100.00
13015;BME280;6573;57.696;11.950;2022-09-09T05:16:11;101260.06;;;13.04;100.00
13015;BME280;6573;57.696;11.950;2022-09-09T05:18:40;101256.56;;;13.05;100.00
13015;BME280;6573;57.696;11.950;2022-09-09T05:21:12;101258.28;;;13.06;100.00
13015;BME280;6573;57.696;11.950;2022-09-09T05:23:40;101258.31;;;13.12;100.00
13015;BME280;6573;57.696;11.950;2022-09-09T05:26:12;101253.88;;;13.14;100.00
13015;BME280;6573;57.696;11.950;2022-09-09T05:28:43;101240.69;;;13.11;100.00
13015;BME280;6573;57.696;11.950;2022-09-09T05:31:13;101254.75;;;13.16;100.00
13015;BME280;6573;57.696;11.950;2022-09-09T05:33:44;101259.13;;;13.21;100.00
13015;BME280;6573;57.696;11.950;2022-09-09T05:36:16;101259.09;;;13.23;100.00
13015;BME280;6573;57.696;11.950;2022-09-09T05:38:44;101256.44;;;13.29;100.00
13015;BME280;6573;57.696;11.950;2022-09-09T05:41:13;101268.72;;;13.33;100.00
13015;BME280;6573;57.696;11.950;2022-09-09T05:43:43;101261.59;;;13.44;100.00
13015;BME280;6573;57.696;11.950;2022-09-09T05:46:15;101273.88;;;13.51;100.00
13015;BME280;6573;57.696;11.950;2022-09-09T05:48:45;101263.28;;;13.54;100.00
13015;BME280;6573;57.696;11.950;2022-09-09T05:51:18;101266.75;;;13.60;100.00
13015;BME280;6573;57.696;11.950;2022-09-09T05:53:48;101266.72;;;13.65;100.00
13015;BME280;6573;57.696;11.950;2022-09-09T05:56:18;101258.81;;;13.63;100.00
13015;BME280;6573;57.696;11.950;2022-09-09T05:58:49;101271.94;;;13.74;100.00
13015;BME280;6573;57.696;11.950;2022-09-09T06:01:22;101257.91;;;13.66;100.00
13015;BME280;6573;57.696;11.950;2022-09-09T06:03:51;101236.78;;;13.60;100.00
13015;BME280;6573;57.696;11.950;2022-09-09T06:06:22;101271.00;;;13.81;100.00
13015;BME280;6573;57.696;11.950;2022-09-09T06:08:54;101268.34;;;13.84;100.00
13015;BME280;6573;57.696;11.950;2022-09-09T06:11:26;101270.06;;;13.85;100.00
13015;BME280;6573;57.696;11.950;2022-09-09T06:13:54;101269.16;;;13.88;100.00
13015;BME280;6573;57.696;11.950;2022-09-09T06:16:24;101268.25;;;13.90;100.00
13015;BME280;6573;57.696;11.950;2022-09-09T06:18:54;101271.78;;;13.89;100.00
13015;BME280;6573;57.696;11.950;2022-09-09T06:21:25;101263.84;;;13.89;100.00
13015;BME280;6573;57.696;11.950;2022-09-09T06:23:54;101271.72;;;13.95;100.00
13015;BME280;6573;57.696;11.950;2022-09-09T06:26:28;101261.13;;;13.98;100.00
13015;BME280;6573;57.696;11.950;2022-09-09T06:28:58;101254.13;;;13.93;100.00
13015;BME280;6573;57.696;11.950;2022-09-09T06:31:27;101262.81;;;14.05;100.00
13015;BME280;6573;57.696;11.950;2022-09-09T06:33:58;101269.81;;;14.12;100.00
13015;BME280;6573;57.696;11.950;2022-09-09T06:36:29;101257.44;;;14.14;100.00
13015;BME280;6573;57.696;11.950;2022-09-09T06:38:58;101259.16;;;14.18;100.00
13015;BME280;6573;57.696;11.950;2022-09-09T06:41:28;101258.22;;;14.22;100.00
13015;BME280;6573;57.696;11.950;2022-09-09T06:43:56;101242.44;;;14.16;100.00
13015;BME280;6573;57.696;11.950;2022-09-09T06:46:28;101259.06;;;14.31;100.00
13015;BME280;6573;57.696;11.950;2022-09-09T06:48:58;101241.41;;;14.33;100.00
13015;BME280;6573;57.696;11.950;2022-09-09T06:51:29;101248.38;;;14.40;100.00
13015;BME280;6573;57.696;11.950;2022-09-09T06:53:59;101249.16;;;14.48;100.00
13015;BME280;6573;57.696;11.950;2022-09-09T06:56:30;101260.63;;;14.47;100.00
13015;BME280;6573;57.696;11.950;2022-09-09T06:59:00;101257.09;;;14.48;100.00
13015;BME280;6573;57.696;11.950;2022-09-09T07:01:32;101248.19;;;14.55;100.00
13015;BME280;6573;57.696;11.950;2022-09-09T07:04:02;101250.88;;;14.52;100.00
13015;BME280;6573;57.696;11.950;2022-09-09T07:06:34;101252.53;;;14.60;100.00
13015;BME280;6573;57.696;11.950;2022-09-09T07:09:04;101250.78;;;14.61;100.00
13015;BME280;6573;57.696;11.950;2022-09-09T07:11:36;101250.72;;;14.65;100.00
13015;BME280;6573;57.696;11.950;2022-09-09T07:14:05;101242.66;;;14.73;100.00
13015;BME280;6573;57.696;11.950;2022-09-09T07:16:34;101232.13;;;14.70;100.00
13015;BME280;6573;57.696;11.950;2022-09-09T07:19:04;101248.78;;;14.76;100.00
13015;BME280;6573;57.696;11.950;2022-09-09T07:21:34;101249.59;;;14.83;100.00
13015;BME280;6573;57.696;11.950;2022-09-09T07:24:03;101250.41;;;14.88;100.00
13015;BME280;6573;57.696;11.950;2022-09-09T07:26:34;101253.88;;;14.93;100.00
13015;BME280;6573;57.696;11.950;2022-09-09T07:29:02;101251.22;;;14.93;100.00
13015;BME280;6573;57.696;11.950;2022-09-09T07:31:32;101247.63;;;14.97;100.00
13015;BME280;6573;57.696;11.950;2022-09-09T07:34:02;101241.50;;;14.93;100.00
13015;BME280;6573;57.696;11.950;2022-09-09T07:36:34;101244.03;;;15.01;100.00
13015;BME280;6573;57.696;11.950;2022-09-09T07:39:04;101229.97;;;14.96;100.00
13015;BME280;6573;57.696;11.950;2022-09-09T07:41:37;101246.66;;;15.06;100.00
13015;BME280;6573;57.696;11.950;2022-09-09T07:44:08;101238.63;;;15.10;100.00
13015;BME280;6573;57.696;11.950;2022-09-09T07:46:38;101247.38;;;15.15;100.00
13015;BME280;6573;57.696;11.950;2022-09-09T07:49:09;101230.53;;;15.19;100.00
13015;BME280;6573;57.696;11.950;2022-09-09T07:51:40;101237.50;;;15.25;100.00
13015;BME280;6573;57.696;11.950;2022-09-09T07:54:10;101234.06;;;15.18;100.00
13015;BME280;6573;57.696;11.950;2022-09-09T07:56:39;101235.78;;;15.22;100.00
13015;BME280;6573;57.696;11.950;2022-09-09T07:59:08;101234.81;;;15.26;100.00
13015;BME280;6573;57.696;11.950;2022-09-09T08:01:39;101234.81;;;15.26;100.00
13015;BME280;6573;57.696;11.950;2022-09-09T08:04:10;101232.97;;;15.31;100.00
13015;BME280;6573;57.696;11.950;2022-09-09T08:06:46;101229.41;;;15.35;100.00
13015;BME280;6573;57.696;11.950;2022-09-09T08:09:15;101226.63;;;15.41;100.00
13015;BME280;6573;57.696;11.950;2022-09-09T08:11:44;101237.16;;;15.49;100.00
13015;BME280;6573;57.696;11.950;2022-09-09T08:14:13;101236.16;;;15.58;100.00
13015;BME280;6573;57.696;11.950;2022-09-09T08:16:44;101211.56;;;15.43;100.00
13015;BME280;6573;57.696;11.950;2022-09-09T08:19:13;101233.38;;;15.64;100.00
13015;BME280;6573;57.696;11.950;2022-09-09T08:21:44;101234.22;;;15.66;100.00
13015;BME280;6573;57.696;11.950;2022-09-09T08:24:13;101243.69;;;15.82;100.00
13015;BME280;6573;57.696;11.950;2022-09-09T08:26:44;101241.78;;;15.90;100.00
13015;BME280;6573;57.696;11.950;2022-09-09T08:29:13;101237.19;;;15.98;100.00
13015;BME280;6573;57.696;11.950;2022-09-09T08:31:42;101239.69;;;16.07;100.00
13015;BME280;6573;57.696;11.950;2022-09-09T08:34:11;101241.31;;;16.14;100.00
13015;BME280;6573;57.696;11.950;2022-09-09T08:36:41;101247.66;;;16.07;100.00
13015;BME280;6573;57.696;11.950;2022-09-09T08:39:13;101247.69;;;16.04;100.00
13015;BME280;6573;57.696;11.950;2022-09-09T08:42:00;101237.03;;;16.07;100.00
13015;BME280;6573;57.696;11.950;2022-09-09T08:44:45;101219.47;;;16.00;100.00
13015;BME280;6573;57.696;11.950;2022-09-09T08:47:22;101246.75;;;16.06;100.00
13015;BME280;6573;57.696;11.950;2022-09-09T08:50:13;101233.53;;;16.05;100.00
13015;BME280;6573;57.696;11.950;2022-09-09T08:52:51;101245.88;;;16.06;100.00
13015;BME280;6573;57.696;11.950;2022-09-09T08:55:26;101240.38;;;16.15;100.00
13015;BME280;6573;57.696;11.950;2022-09-09T08:57:58;101243.84;;;16.20;100.00
13015;BME280;6573;57.696;11.950;2022-09-09T09:00:35;101245.66;;;16.18;100.00
13015;BME280;6573;57.696;11.950;2022-09-09T09:03:15;101251.00;;;16.15;100.00
13015;BME280;6573;57.696;11.950;2022-09-09T09:05:54;101245.59;;;16.21;100.00
13015;BME280;6573;57.696;11.950;2022-09-09T09:08:32;101242.06;;;16.22;100.00
13015;BME280;6573;57.696;11.950;2022-09-09T09:11:06;101243.63;;;16.32;100.00
13015;BME280;6573;57.696;11.950;2022-09-09T09:13:41;101240.09;;;16.30;100.00
13015;BME280;6573;57.696;11.950;2022-09-09T09:16:19;101247.22;;;16.30;100.00
13015;BME280;6573;57.696;11.950;2022-09-09T09:18:49;101234.78;;;16.30;100.00
13015;BME280;6573;57.696;11.950;2022-09-09T09:21:32;101243.53;;;16.35;100.00
13015;BME280;6573;57.696;11.950;2022-09-09T09:24:07;101248.75;;;16.41;100.00
13015;BME280;6573;57.696;11.950;2022-09-09T09:26:43;101234.50;;;16.45;100.00
13015;BME280;6573;57.696;11.950;2022-09-09T09:29:13;101230.78;;;16.55;100.00
13015;BME280;6573;57.696;11.950;2022-09-09T09:31:46;101241.41;;;16.55;100.00
13015;BME280;6573;57.696;11.950;2022-09-09T09:34:16;101232.63;;;16.50;100.00
13015;BME280;6573;57.696;11.950;2022-09-09T09:36:52;101225.28;;;16.64;100.00
13015;BME280;6573;57.696;11.950;2022-09-09T09:39:25;101221.72;;;16.65;100.00
13015;BME280;6573;57.696;11.950;2022-09-09T09:42:16;101234.09;;;16.66;100.00
13015;BME280;6573;57.696;11.950;2022-09-09T09:44:49;101232.28;;;16.68;100.00
13015;BME280;6573;57.696;11.950;2022-09-09T09:47:19;101231.94;;;16.83;100.00
13015;BME280;6573;57.696;11.950;2022-09-09T09:49:52;101209.09;;;16.76;100.00
13015;BME280;6573;57.696;11.950;2022-09-09T09:52:23;101219.56;;;16.82;100.00
13015;BME280;6573;57.696;11.950;2022-09-09T09:54:52;101231.81;;;16.90;100.00
13015;BME280;6573;57.696;11.950;2022-09-09T09:57:26;101231.63;;;16.99;100.00
13015;BME280;6573;57.696;11.950;2022-09-09T10:00:04;101224.59;;;16.95;100.00
13015;BME280;6573;57.696;11.950;2022-09-09T10:02:41;101226.97;;;17.08;100.00
13015;BME280;6573;57.696;11.950;2022-09-09T10:05:14;101231.03;;;16.84;100.00
13015;BME280;6573;57.696;11.950;2022-09-09T10:07:43;101226.59;;;16.85;100.00
13015;BME280;6573;57.696;11.950;2022-09-09T10:10:15;101227.59;;;16.81;100.00
13015;BME280;6573;57.696;11.950;2022-09-09T10:12:57;101229.25;;;16.87;100.00
13015;BME280;6573;57.696;11.950;2022-09-09T10:15:40;101224.94;;;16.79;100.00
13015;BME280;6573;57.696;11.950;2022-09-09T10:18:34;101233.94;;;16.74;100.00
13015;BME280;6573;57.696;11.950;2022-09-09T10:21:14;101234.91;;;16.70;100.00
13015;BME280;6573;57.696;11.950;2022-09-09T10:24:11;101232.53;;;16.56;100.00
13015;BME280;6573;57.696;11.950;2022-09-09T10:26:50;101223.72;;;16.54;100.00
13015;BME280;6573;57.696;11.950;2022-09-09T10:29:33;101239.81;;;16.45;100.00
13015;BME280;6573;57.696;11.950;2022-09-09T10:32:24;101229.38;;;16.36;100.00
13015;BME280;6573;57.696;11.950;2022-09-09T10:35:02;101230.41;;;16.28;100.00
13015;BME280;6573;57.696;11.950;2022-09-09T10:37:43;101239.25;;;16.28;100.00
13015;BME280;6573;57.696;11.950;2022-09-09T10:40:26;101241.88;;;16.31;100.00
13015;BME280;6573;57.696;11.950;2022-09-09T10:43:04;101234.69;;;16.36;100.00
13015;BME280;6573;57.696;11.950;2022-09-09T10:45:48;101207.84;;;16.05;100.00
13015;BME280;6573;57.696;11.950;2022-09-09T10:48:31;101236.84;;;16.16;100.00
13015;BME280;6573;57.696;11.950;2022-09-09T10:51:11;101231.59;;;16.13;100.00
13015;BME280;6573;57.696;11.950;2022-09-09T10:53:50;101247.50;;;16.13;100.00
13015;BME280;6573;57.696;11.950;2022-09-09T10:56:21;101238.84;;;16.05;100.00
13015;BME280;6573;57.696;11.950;2022-09-09T10:58:54;101244.19;;;16.02;100.00
13015;BME280;6573;57.696;11.950;2022-09-09T11:01:29;101253.91;;;16.03;100.00
13015;BME280;6573;57.696;11.950;2022-09-09T11:04:05;101254.78;;;16.05;100.00
13015;BME280;6573;57.696;11.950;2022-09-09T11:06:41;101261.84;;;16.03;100.00
13015;BME280;6573;57.696;11.950;2022-09-09T11:09:16;101260.22;;;15.96;100.00
13015;BME280;6573;57.696;11.950;2022-09-09T11:11:49;101253.44;;;15.80;100.00
13015;BME280;6573;57.696;11.950;2022-09-09T11:14:26;101257.00;;;15.79;100.00
13015;BME280;6573;57.696;11.950;2022-09-09T11:17:08;101253.50;;;15.77;100.00
13015;BME280;6573;57.696;11.950;2022-09-09T11:19:39;101255.31;;;15.75;100.00
13015;BME280;6573;57.696;11.950;2022-09-09T11:22:16;101253.53;;;15.74;100.00
13015;BME280;6573;57.696;11.950;2022-09-09T11:24:50;101252.78;;;15.67;100.00
13015;BME280;6573;57.696;11.950;2022-09-09T11:27:23;101250.19;;;15.63;100.00
13015;BME280;6573;57.696;11.950;2022-09-09T11:30:12;101247.47;;;15.67;100.00
13015;BME280;6573;57.696;11.950;2022-09-09T11:33:31;101256.22;;;15.72;100.00
13015;BME280;6573;57.696;11.950;2022-09-09T11:39:38;101258.97;;;15.68;100.00
13015;BME280;6573;57.696;11.950;2022-09-09T11:42:18;101253.56;;;15.71;100.00
13015;BME280;6573;57.696;11.950;2022-09-09T11:44:46;101259.06;;;15.62;100.00
13015;BME280;6573;57.696;11.950;2022-09-09T11:47:24;101259.88;;;15.64;100.00
13015;BME280;6573;57.696;11.950;2022-09-09T11:50:10;101257.41;;;15.54;100.00
13015;BME280;6573;57.696;11.950;2022-09-09T11:56:09;101247.72;;;15.52;100.00
13015;BME280;6573;57.696;11.950;2022-09-09T11:58:42;101255.59;;;15.57;100.00
13015;BME280;6573;57.696;11.950;2022-09-09T12:01:26;101258.31;;;15.52;100.00
13015;BME280;6573;57.696;11.950;2022-09-09T12:04:09;101253.94;;;15.49;100.00
13015;BME280;6573;57.696;11.950;2022-09-09T12:06:44;101245.19;;;15.41;100.00
13015;BME280;6573;57.696;11.950;2022-09-09T12:09:27;101253.19;;;15.40;100.00
13015;BME280;6573;57.696;11.950;2022-09-09T12:12:21;101240.06;;;15.32;100.00
13015;BME280;6573;57.696;11.950;2022-09-09T12:15:18;101248.81;;;15.37;100.00
13015;BME280;6573;57.696;11.950;2022-09-09T12:17:49;101239.13;;;15.35;100.00
13015;BME280;6573;57.696;11.950;2022-09-09T12:20:20;101243.53;;;15.34;100.00
13015;BME280;6573;57.696;11.950;2022-09-09T12:25:58;101238.16;;;15.39;100.00
13015;BME280;6573;57.696;11.950;2022-09-09T12:28:44;101248.69;;;15.46;100.00
13015;BME280;6573;57.696;11.950;2022-09-09T12:31:20;101227.63;;;15.34;100.00
13015;BME280;6573;57.696;11.950;2022-09-09T12:33:51;101240.81;;;15.40;100.00
13015;BME280;6573;57.696;11.950;2022-09-09T12:36:24;101228.59;;;15.30;100.00
13015;BME280;6573;57.696;11.950;2022-09-09T12:38:56;101246.94;;;15.45;100.00
13015;BME280;6573;57.696;11.950;2022-09-09T12:41:27;101245.16;;;15.47;100.00
13015;BME280;6573;57.696;11.950;2022-09-09T12:44:04;101239.94;;;15.38;100.00
13015;BME280;6573;57.696;11.950;2022-09-09T12:46:38;101238.09;;;15.46;100.00
13015;BME280;6573;57.696;11.950;2022-09-09T12:49:26;101236.28;;;15.48;100.00
13015;BME280;6573;57.696;11.950;2022-09-09T12:51:58;101234.56;;;15.44;100.00
13015;BME280;6573;57.696;11.950;2022-09-09T12:54:29;101210.81;;;15.37;100.00
13015;BME280;6573;57.696;11.950;2022-09-09T12:56:58;101235.31;;;15.54;100.00
13015;BME280;6573;57.696;11.950;2022-09-09T12:59:35;101238.84;;;15.53;100.00
13015;BME280;6573;57.696;11.950;2022-09-09T13:02:16;101229.25;;;15.47;100.00
13015;BME280;6573;57.696;11.950;2022-09-09T13:04:46;101236.06;;;15.61;100.00
13015;BME280;6573;57.696;11.950;2022-09-09T13:07:14;101220.22;;;15.58;100.00
13015;BME280;6573;57.696;11.950;2022-09-09T13:09:45;101235.25;;;15.57;100.00
13015;BME280;6573;57.696;11.950;2022-09-09T13:12:15;101218.56;;;15.50;100.00
13015;BME280;6573;57.696;11.950;2022-09-09T13:14:46;101230.75;;;15.61;100.00
13015;BME280;6573;57.696;11.950;2022-09-09T13:17:20;101237.88;;;15.59;100.00
13015;BME280;6573;57.696;11.950;2022-09-09T13:19:50;101228.22;;;15.54;100.00
13015;BME280;6573;57.696;11.950;2022-09-09T13:22:23;101232.72;;;15.49;100.00
13015;BME280;6573;57.696;11.950;2022-09-09T13:25:05;101224.81;;;15.48;100.00